sensor_id;sensor_type;location;lat;lon;timestamp;P1;durP1;ratioP1;P2;durP2;ratioP2
21941;SDS011;11135;54.192;15.670;2023-09-12T00:01:53;17.65;;;15.88;;
21941;SDS011;11135;54.192;15.670;2023-09-12T00:05:20;19.85;;;15.85;;
21941;SDS011;11135;54.192;15.670;2023-09-12T00:08:49;16.52;;;14.82;;
21941;SDS011;11135;54.192;15.670;2023-09-12T00:12:21;19.92;;;16.20;;
21941;SDS011;11135;54.192;15.670;2023-09-12T00:15:49;17.85;;;15.95;;
21941;SDS011;11135;54.192;15.670;2023-09-12T00:19:15;16.88;;;13.73;;
21941;SDS011;11135;54.192;15.670;2023-09-12T00:22:41;15.07;;;13.48;;
21941;SDS011;11135;54.192;15.670;2023-09-12T00:26:10;15.77;;;14.23;;
21941;SDS011;11135;54.192;15.670;2023-09-12T00:29:38;16.92;;;14.00;;
21941;SDS011;11135;54.192;15.670;2023-09-12T00:33:04;14.82;;;13.32;;
21941;SDS011;11135;54.192;15.670;2023-09-12T00:36:30;16.63;;;14.77;;
21941;SDS011;11135;54.192;15.670;2023-09-12T00:39:57;15.48;;;13.88;;
21941;SDS011;11135;54.192;15.670;2023-09-12T00:43:27;14.68;;;13.18;;
21941;SDS011;11135;54.192;15.670;2023-09-12T00:46:55;14.65;;;12.73;;
21941;SDS011;11135;54.192;15.670;2023-09-12T00:50:23;14.60;;;13.15;;
21941;SDS011;11135;54.192;15.670;2023-09-12T00:53:50;15.30;;;13.70;;
21941;SDS011;11135;54.192;15.670;2023-09-12T00:57:18;16.20;;;13.95;;
21941;SDS011;11135;54.192;15.670;2023-09-12T01:00:47;17.02;;;13.95;;
21941;SDS011;11135;54.192;15.670;2023-09-12T01:04:14;15.40;;;13.57;;
21941;SDS011;11135;54.192;15.670;2023-09-12T01:07:56;15.97;;;13.63;;
21941;SDS011;11135;54.192;15.670;2023-09-12T01:11:22;16.77;;;14.20;;
21941;SDS011;11135;54.192;15.670;2023-09-12T01:14:48;15.43;;;13.93;;
21941;SDS011;11135;54.192;15.670;2023-09-12T01:18:17;15.18;;;13.57;;
21941;SDS011;11135;54.192;15.670;2023-09-12T01:21:49;14.77;;;13.25;;
21941;SDS011;11135;54.192;15.670;2023-09-12T01:25:31;17.10;;;13.73;;
21941;SDS011;11135;54.192;15.670;2023-09-12T01:29:03;13.43;;;12.13;;
21941;SDS011;11135;54.192;15.670;2023-09-12T01:32:32;14.75;;;13.35;;
21941;SDS011;11135;54.192;15.670;2023-09-12T01:35:59;16.17;;;13.20;;
21941;SDS011;11135;54.192;15.670;2023-09-12T01:39:26;14.75;;;13.18;;
21941;SDS011;11135;54.192;15.670;2023-09-12T01:42:54;15.00;;;13.02;;
21941;SDS011;11135;54.192;15.670;2023-09-12T01:46:25;15.77;;;13.82;;
21941;SDS011;11135;54.192;15.670;2023-09-12T01:49:52;16.67;;;13.82;;
21941;SDS011;11135;54.192;15.670;2023-09-12T01:53:22;14.70;;;13.30;;
21941;SDS011;11135;54.192;15.670;2023-09-12T01:56:48;17.77;;;14.57;;
21941;SDS011;11135;54.192;15.670;2023-09-12T02:00:16;14.85;;;12.85;;
21941;SDS011;11135;54.192;15.670;2023-09-12T02:03:45;14.60;;;13.05;;
21941;SDS011;11135;54.192;15.670;2023-09-12T02:07:12;14.43;;;12.90;;
21941;SDS011;11135;54.192;15.670;2023-09-12T02:10:40;14.73;;;13.32;;
21941;SDS011;11135;54.192;15.670;2023-09-12T02:14:08;14.68;;;13.18;;
21941;SDS011;11135;54.192;15.670;2023-09-12T02:17:36;17.77;;;13.45;;
21941;SDS011;11135;54.192;15.670;2023-09-12T02:21:08;14.25;;;12.73;;
21941;SDS011;11135;54.192;15.670;2023-09-12T02:24:34;17.65;;;13.63;;
21941;SDS011;11135;54.192;15.670;2023-09-12T02:28:03;15.13;;;12.45;;
21941;SDS011;11135;54.192;15.670;2023-09-12T02:31:29;14.88;;;13.27;;
21941;SDS011;11135;54.192;15.670;2023-09-12T02:34:57;14.75;;;12.65;;
21941;SDS011;11135;54.192;15.670;2023-09-12T02:38:26;14.18;;;12.82;;
21941;SDS011;11135;54.192;15.670;2023-09-12T02:41:52;14.35;;;12.90;;
21941;SDS011;11135;54.192;15.670;2023-09-12T02:45:19;14.18;;;12.77;;
21941;SDS011;11135;54.192;15.670;2023-09-12T02:48:48;15.70;;;12.32;;
21941;SDS011;11135;54.192;15.670;2023-09-12T02:52:15;14.05;;;12.48;;
21941;SDS011;11135;54.192;15.670;2023-09-12T02:55:44;14.63;;;13.00;;
21941;SDS011;11135;54.192;15.670;2023-09-12T02:59:13;13.65;;;12.27;;
21941;SDS011;11135;54.192;15.670;2023-09-12T03:02:41;14.88;;;13.38;;
21941;SDS011;11135;54.192;15.670;2023-09-12T03:06:10;13.63;;;12.23;;
21941;SDS011;11135;54.192;15.670;2023-09-12T03:09:37;14.50;;;12.45;;
21941;SDS011;11135;54.192;15.670;2023-09-12T03:13:07;17.70;;;12.68;;
21941;SDS011;11135;54.192;15.670;2023-09-12T03:16:35;14.30;;;12.43;;
21941;SDS011;11135;54.192;15.670;2023-09-12T03:20:04;13.75;;;12.35;;
21941;SDS011;11135;54.192;15.670;2023-09-12T03:23:32;12.95;;;11.65;;
21941;SDS011;11135;54.192;15.670;2023-09-12T03:26:58;13.73;;;12.30;;
21941;SDS011;11135;54.192;15.670;2023-09-12T03:30:30;13.68;;;12.02;;
21941;SDS011;11135;54.192;15.670;2023-09-12T03:34:03;13.32;;;11.77;;
21941;SDS011;11135;54.192;15.670;2023-09-12T03:37:34;13.70;;;11.85;;
21941;SDS011;11135;54.192;15.670;2023-09-12T03:41:03;14.68;;;11.68;;
21941;SDS011;11135;54.192;15.670;2023-09-12T03:44:31;13.15;;;11.80;;
21941;SDS011;11135;54.192;15.670;2023-09-12T03:48:00;13.15;;;11.30;;
21941;SDS011;11135;54.192;15.670;2023-09-12T03:51:30;14.75;;;11.80;;
21941;SDS011;11135;54.192;15.670;2023-09-12T03:54:58;13.65;;;12.25;;
21941;SDS011;11135;54.192;15.670;2023-09-12T03:58:25;13.27;;;11.93;;
21941;SDS011;11135;54.192;15.670;2023-09-12T04:01:54;13.98;;;12.57;;
21941;SDS011;11135;54.192;15.670;2023-09-12T04:05:24;12.88;;;11.25;;
21941;SDS011;11135;54.192;15.670;2023-09-12T04:08:51;12.00;;;10.70;;
21941;SDS011;11135;54.192;15.670;2023-09-12T04:12:19;13.23;;;11.82;;
21941;SDS011;11135;54.192;15.670;2023-09-12T04:15:45;12.88;;;11.52;;
21941;SDS011;11135;54.192;15.670;2023-09-12T04:19:11;14.80;;;12.18;;
21941;SDS011;11135;54.192;15.670;2023-09-12T04:22:42;13.23;;;11.63;;
21941;SDS011;11135;54.192;15.670;2023-09-12T04:26:09;12.43;;;11.02;;
21941;SDS011;11135;54.192;15.670;2023-09-12T04:29:35;12.88;;;10.85;;
21941;SDS011;11135;54.192;15.670;2023-09-12T04:33:04;12.55;;;10.90;;
21941;SDS011;11135;54.192;15.670;2023-09-12T04:36:30;12.77;;;11.32;;
21941;SDS011;11135;54.192;15.670;2023-09-12T04:39:59;13.73;;;11.20;;
21941;SDS011;11135;54.192;15.670;2023-09-12T04:43:27;12.00;;;10.80;;
21941;SDS011;11135;54.192;15.670;2023-09-12T04:46:54;13.63;;;10.07;;
21941;SDS011;11135;54.192;15.670;2023-09-12T04:50:20;11.60;;;10.40;;
21941;SDS011;11135;54.192;15.670;2023-09-12T04:53:47;12.02;;;10.65;;
21941;SDS011;11135;54.192;15.670;2023-09-12T04:57:19;11.02;;;9.90;;
21941;SDS011;11135;54.192;15.670;2023-09-12T05:00:45;12.52;;;10.55;;
21941;SDS011;11135;54.192;15.670;2023-09-12T05:04:13;12.57;;;10.65;;
21941;SDS011;11135;54.192;15.670;2023-09-12T05:07:42;11.52;;;10.32;;
21941;SDS011;11135;54.192;15.670;2023-09-12T05:11:09;14.45;;;11.00;;
21941;SDS011;11135;54.192;15.670;2023-09-12T05:14:37;11.43;;;10.23;;
21941;SDS011;11135;54.192;15.670;2023-09-12T05:18:03;11.85;;;10.65;;
21941;SDS011;11135;54.192;15.670;2023-09-12T05:21:30;12.30;;;11.00;;
21941;SDS011;11135;54.192;15.670;2023-09-12T05:25:00;11.68;;;10.18;;
21941;SDS011;11135;54.192;15.670;2023-09-12T05:28:26;13.10;;;10.27;;
21941;SDS011;11135;54.192;15.670;2023-09-12T05:31:56;11.55;;;10.35;;
21941;SDS011;11135;54.192;15.670;2023-09-12T05:35:22;10.85;;;9.85;;
21941;SDS011;11135;54.192;15.670;2023-09-12T05:38:48;12.75;;;10.38;;
21941;SDS011;11135;54.192;15.670;2023-09-12T05:42:15;11.10;;;10.00;;
21941;SDS011;11135;54.192;15.670;2023-09-12T05:45:43;13.18;;;10.15;;
21941;SDS011;11135;54.192;15.670;2023-09-12T05:49:14;12.05;;;10.63;;
21941;SDS011;11135;54.192;15.670;2023-09-12T05:52:44;11.82;;;10.57;;
21941;SDS011;11135;54.192;15.670;2023-09-12T05:56:10;12.18;;;10.77;;
21941;SDS011;11135;54.192;15.670;2023-09-12T05:59:38;13.10;;;10.55;;
21941;SDS011;11135;54.192;15.670;2023-09-12T06:03:08;10.13;;;9.07;;
21941;SDS011;11135;54.192;15.670;2023-09-12T06:06:37;12.77;;;9.82;;
21941;SDS011;11135;54.192;15.670;2023-09-12T06:10:04;14.20;;;9.85;;
21941;SDS011;11135;54.192;15.670;2023-09-12T06:13:29;13.80;;;9.40;;
21941;SDS011;11135;54.192;15.670;2023-09-12T06:17:05;11.50;;;10.30;;
21941;SDS011;11135;54.192;15.670;2023-09-12T06:20:33;10.80;;;9.70;;
21941;SDS011;11135;54.192;15.670;2023-09-12T06:24:11;13.93;;;10.13;;
21941;SDS011;11135;54.192;15.670;2023-09-12T06:27:38;11.23;;;9.52;;
21941;SDS011;11135;54.192;15.670;2023-09-12T06:31:07;14.75;;;10.32;;
21941;SDS011;11135;54.192;15.670;2023-09-12T06:34:35;14.85;;;9.95;;
21941;SDS011;11135;54.192;15.670;2023-09-12T06:38:01;12.38;;;9.95;;
21941;SDS011;11135;54.192;15.670;2023-09-12T06:41:29;11.88;;;10.23;;
21941;SDS011;11135;54.192;15.670;2023-09-12T06:44:56;12.10;;;10.70;;
21941;SDS011;11135;54.192;15.670;2023-09-12T06:48:22;11.73;;;9.88;;
21941;SDS011;11135;54.192;15.670;2023-09-12T06:51:50;12.00;;;10.32;;
21941;SDS011;11135;54.192;15.670;2023-09-12T06:55:16;14.00;;;10.88;;
21941;SDS011;11135;54.192;15.670;2023-09-12T06:58:48;11.48;;;9.50;;
21941;SDS011;11135;54.192;15.670;2023-09-12T07:02:15;10.82;;;9.82;;
21941;SDS011;11135;54.192;15.670;2023-09-12T07:05:42;14.77;;;10.63;;
21941;SDS011;11135;54.192;15.670;2023-09-12T07:09:08;12.05;;;10.80;;
21941;SDS011;11135;54.192;15.670;2023-09-12T07:12:38;13.18;;;10.95;;
21941;SDS011;11135;54.192;15.670;2023-09-12T07:16:07;14.23;;;10.75;;
21941;SDS011;11135;54.192;15.670;2023-09-12T07:19:35;12.15;;;10.18;;
21941;SDS011;11135;54.192;15.670;2023-09-12T07:23:04;13.23;;;10.02;;
21941;SDS011;11135;54.192;15.670;2023-09-12T07:26:30;13.48;;;11.15;;
21941;SDS011;11135;54.192;15.670;2023-09-12T07:29:56;14.73;;;10.82;;
21941;SDS011;11135;54.192;15.670;2023-09-12T07:33:26;14.40;;;10.73;;
21941;SDS011;11135;54.192;15.670;2023-09-12T07:36:56;16.48;;;10.80;;
21941;SDS011;11135;54.192;15.670;2023-09-12T07:40:25;12.98;;;10.27;;
21941;SDS011;11135;54.192;15.670;2023-09-12T07:43:51;11.93;;;10.73;;
21941;SDS011;11135;54.192;15.670;2023-09-12T07:47:33;15.33;;;11.37;;
21941;SDS011;11135;54.192;15.670;2023-09-12T07:51:06;18.02;;;10.82;;
21941;SDS011;11135;54.192;15.670;2023-09-12T07:54:37;12.65;;;10.27;;
21941;SDS011;11135;54.192;15.670;2023-09-12T07:58:05;16.98;;;9.55;;
21941;SDS011;11135;54.192;15.670;2023-09-12T08:01:32;13.88;;;10.27;;
21941;SDS011;11135;54.192;15.670;2023-09-12T08:05:03;13.70;;;10.40;;
21941;SDS011;11135;54.192;15.670;2023-09-12T08:08:34;14.63;;;10.23;;
21941;SDS011;11135;54.192;15.670;2023-09-12T08:12:03;13.75;;;10.40;;
21941;SDS011;11135;54.192;15.670;2023-09-12T08:15:31;12.75;;;9.45;;
21941;SDS011;11135;54.192;15.670;2023-09-12T08:18:58;13.57;;;10.50;;
21941;SDS011;11135;54.192;15.670;2023-09-12T08:22:25;13.80;;;9.60;;
21941;SDS011;11135;54.192;15.670;2023-09-12T08:25:54;11.13;;;9.43;;
21941;SDS011;11135;54.192;15.670;2023-09-12T08:29:21;11.35;;;9.13;;
21941;SDS011;11135;54.192;15.670;2023-09-12T08:33:00;14.13;;;8.82;;
21941;SDS011;11135;54.192;15.670;2023-09-12T08:36:28;11.35;;;9.45;;
21941;SDS011;11135;54.192;15.670;2023-09-12T08:39:56;13.55;;;8.75;;
21941;SDS011;11135;54.192;15.670;2023-09-12T08:43:25;11.05;;;9.82;;
21941;SDS011;11135;54.192;15.670;2023-09-12T08:46:53;11.85;;;9.02;;
21941;SDS011;11135;54.192;15.670;2023-09-12T08:50:21;10.60;;;8.48;;
21941;SDS011;11135;54.192;15.670;2023-09-12T08:53:58;14.30;;;9.00;;
21941;SDS011;11135;54.192;15.670;2023-09-12T08:57:28;15.80;;;9.13;;
21941;SDS011;11135;54.192;15.670;2023-09-12T09:01:03;16.48;;;9.25;;
21941;SDS011;11135;54.192;15.670;2023-09-12T09:04:29;13.97;;;8.60;;
21941;SDS011;11135;54.192;15.670;2023-09-12T09:07:57;15.60;;;9.02;;
21941;SDS011;11135;54.192;15.670;2023-09-12T09:11:23;13.30;;;8.63;;
21941;SDS011;11135;54.192;15.670;2023-09-12T09:14:51;13.80;;;8.07;;
21941;SDS011;11135;54.192;15.670;2023-09-12T09:18:25;11.15;;;8.02;;
21941;SDS011;11135;54.192;15.670;2023-09-12T09:21:51;15.85;;;8.32;;
21941;SDS011;11135;54.192;15.670;2023-09-12T09:25:17;14.90;;;8.18;;
21941;SDS011;11135;54.192;15.670;2023-09-12T09:28:44;10.85;;;7.93;;
21941;SDS011;11135;54.192;15.670;2023-09-12T09:32:10;15.95;;;8.45;;
21941;SDS011;11135;54.192;15.670;2023-09-12T09:35:48;16.45;;;7.78;;
21941;SDS011;11135;54.192;15.670;2023-09-12T09:39:16;14.80;;;8.18;;
21941;SDS011;11135;54.192;15.670;2023-09-12T09:42:44;18.33;;;8.27;;
21941;SDS011;11135;54.192;15.670;2023-09-12T09:46:15;15.32;;;7.00;;
21941;SDS011;11135;54.192;15.670;2023-09-12T09:49:42;12.27;;;7.60;;
21941;SDS011;11135;54.192;15.670;2023-09-12T09:53:13;13.13;;;7.50;;
21941;SDS011;11135;54.192;15.670;2023-09-12T09:56:46;13.80;;;7.22;;
21941;SDS011;11135;54.192;15.670;2023-09-12T10:00:13;18.83;;;8.02;;
21941;SDS011;11135;54.192;15.670;2023-09-12T10:03:40;11.75;;;7.03;;
21941;SDS011;11135;54.192;15.670;2023-09-12T10:07:12;14.32;;;7.45;;
21941;SDS011;11135;54.192;15.670;2023-09-12T10:10:42;15.73;;;7.40;;
21941;SDS011;11135;54.192;15.670;2023-09-12T10:14:15;17.67;;;8.70;;
21941;SDS011;11135;54.192;15.670;2023-09-12T10:17:43;13.77;;;8.82;;
21941;SDS011;11135;54.192;15.670;2023-09-12T10:21:13;12.45;;;8.32;;
21941;SDS011;11135;54.192;15.670;2023-09-12T10:24:48;11.77;;;7.97;;
21941;SDS011;11135;54.192;15.670;2023-09-12T10:28:19;9.43;;;6.95;;
21941;SDS011;11135;54.192;15.670;2023-09-12T10:31:45;11.63;;;7.50;;
21941;SDS011;11135;54.192;15.670;2023-09-12T10:35:13;11.43;;;7.20;;
21941;SDS011;11135;54.192;15.670;2023-09-12T10:38:42;13.77;;;7.38;;
21941;SDS011;11135;54.192;15.670;2023-09-12T10:42:09;14.43;;;7.30;;
21941;SDS011;11135;54.192;15.670;2023-09-12T10:45:41;9.15;;;7.15;;
21941;SDS011;11135;54.192;15.670;2023-09-12T10:49:10;9.73;;;6.93;;
21941;SDS011;11135;54.192;15.670;2023-09-12T10:52:37;14.65;;;7.50;;
21941;SDS011;11135;54.192;15.670;2023-09-12T10:56:15;12.05;;;7.35;;
21941;SDS011;11135;54.192;15.670;2023-09-12T11:03:39;18.45;;;8.68;;
21941;SDS011;11135;54.192;15.670;2023-09-12T11:14:30;13.50;;;8.07;;
21941;SDS011;11135;54.192;15.670;2023-09-12T11:18:03;12.10;;;7.93;;
21941;SDS011;11135;54.192;15.670;2023-09-12T11:21:36;13.40;;;7.43;;
21941;SDS011;11135;54.192;15.670;2023-09-12T11:25:03;11.32;;;8.60;;
21941;SDS011;11135;54.192;15.670;2023-09-12T11:28:29;13.02;;;8.52;;
21941;SDS011;11135;54.192;15.670;2023-09-12T11:31:56;16.83;;;9.07;;
21941;SDS011;11135;54.192;15.670;2023-09-12T11:35:25;17.55;;;9.80;;
21941;SDS011;11135;54.192;15.670;2023-09-12T11:38:55;13.70;;;10.80;;
21941;SDS011;11135;54.192;15.670;2023-09-12T11:42:29;19.08;;;11.88;;
21941;SDS011;11135;54.192;15.670;2023-09-12T11:46:02;19.30;;;12.38;;
21941;SDS011;11135;54.192;15.670;2023-09-12T11:49:34;15.48;;;12.95;;
21941;SDS011;11135;54.192;15.670;2023-09-12T11:53:01;19.10;;;13.30;;
21941;SDS011;11135;54.192;15.670;2023-09-12T11:56:33;18.83;;;13.73;;
21941;SDS011;11135;54.192;15.670;2023-09-12T11:59:59;16.70;;;13.25;;
21941;SDS011;11135;54.192;15.670;2023-09-12T12:03:31;15.40;;;12.90;;
21941;SDS011;11135;54.192;15.670;2023-09-12T12:06:59;16.05;;;11.55;;
21941;SDS011;11135;54.192;15.670;2023-09-12T12:10:29;18.27;;;13.95;;
21941;SDS011;11135;54.192;15.670;2023-09-12T12:14:04;19.98;;;12.52;;
21941;SDS011;11135;54.192;15.670;2023-09-12T12:17:37;16.98;;;12.57;;
21941;SDS011;11135;54.192;15.670;2023-09-12T12:21:08;17.83;;;13.27;;
21941;SDS011;11135;54.192;15.670;2023-09-12T12:24:39;19.40;;;13.20;;
21941;SDS011;11135;54.192;15.670;2023-09-12T12:28:07;18.95;;;13.73;;
21941;SDS011;11135;54.192;15.670;2023-09-12T12:31:37;20.38;;;12.57;;
21941;SDS011;11135;54.192;15.670;2023-09-12T12:35:03;16.77;;;12.15;;
21941;SDS011;11135;54.192;15.670;2023-09-12T12:38:52;18.50;;;12.60;;
21941;SDS011;11135;54.192;15.670;2023-09-12T12:42:18;17.55;;;13.82;;
21941;SDS011;11135;54.192;15.670;2023-09-12T12:45:55;21.10;;;12.73;;
21941;SDS011;11135;54.192;15.670;2023-09-12T12:49:26;27.13;;;14.00;;
21941;SDS011;11135;54.192;15.670;2023-09-12T12:52:53;18.83;;;12.38;;
21941;SDS011;11135;54.192;15.670;2023-09-12T12:56:19;17.95;;;12.73;;
21941;SDS011;11135;54.192;15.670;2023-09-12T12:59:46;18.45;;;12.95;;
21941;SDS011;11135;54.192;15.670;2023-09-12T13:03:14;16.17;;;12.90;;
21941;SDS011;11135;54.192;15.670;2023-09-12T13:06:44;21.58;;;14.23;;
21941;SDS011;11135;54.192;15.670;2023-09-12T13:10:13;16.88;;;12.77;;
21941;SDS011;11135;54.192;15.670;2023-09-12T13:13:40;20.88;;;13.27;;
21941;SDS011;11135;54.192;15.670;2023-09-12T13:17:07;18.48;;;13.77;;
21941;SDS011;11135;54.192;15.670;2023-09-12T13:20:33;20.85;;;13.20;;
21941;SDS011;11135;54.192;15.670;2023-09-12T13:24:02;22.40;;;15.15;;
21941;SDS011;11135;54.192;15.670;2023-09-12T13:27:28;20.05;;;15.57;;
21941;SDS011;11135;54.192;15.670;2023-09-12T13:30:55;26.33;;;16.23;;
21941;SDS011;11135;54.192;15.670;2023-09-12T13:34:22;21.40;;;17.33;;
21941;SDS011;11135;54.192;15.670;2023-09-12T13:37:48;24.05;;;17.55;;
21941;SDS011;11135;54.192;15.670;2023-09-12T13:41:17;24.48;;;17.77;;
21941;SDS011;11135;54.192;15.670;2023-09-12T13:44:44;25.17;;;19.50;;
21941;SDS011;11135;54.192;15.670;2023-09-12T13:48:11;21.77;;;18.13;;
21941;SDS011;11135;54.192;15.670;2023-09-12T13:51:41;28.00;;;19.52;;
21941;SDS011;11135;54.192;15.670;2023-09-12T13:55:07;26.95;;;22.63;;
21941;SDS011;11135;54.192;15.670;2023-09-12T13:58:41;27.83;;;21.65;;
21941;SDS011;11135;54.192;15.670;2023-09-12T14:02:10;25.05;;;19.75;;
21941;SDS011;11135;54.192;15.670;2023-09-12T14:05:37;27.63;;;21.63;;
21941;SDS011;11135;54.192;15.670;2023-09-12T14:09:07;25.20;;;20.05;;
21941;SDS011;11135;54.192;15.670;2023-09-12T14:12:34;28.95;;;21.83;;
21941;SDS011;11135;54.192;15.670;2023-09-12T14:16:03;28.42;;;21.67;;
21941;SDS011;11135;54.192;15.670;2023-09-12T14:19:29;26.92;;;23.08;;
21941;SDS011;11135;54.192;15.670;2023-09-12T14:23:00;26.77;;;21.65;;
21941;SDS011;11135;54.192;15.670;2023-09-12T14:26:31;25.67;;;20.08;;
21941;SDS011;11135;54.192;15.670;2023-09-12T14:29:57;29.80;;;21.83;;
21941;SDS011;11135;54.192;15.670;2023-09-12T14:33:29;31.40;;;24.02;;
21941;SDS011;11135;54.192;15.670;2023-09-12T14:36:59;26.88;;;21.35;;
21941;SDS011;11135;54.192;15.670;2023-09-12T14:40:27;27.02;;;21.85;;
21941;SDS011;11135;54.192;15.670;2023-09-12T14:44:00;29.95;;;23.98;;
21941;SDS011;11135;54.192;15.670;2023-09-12T14:47:27;31.10;;;22.75;;
21941;SDS011;11135;54.192;15.670;2023-09-12T14:51:00;29.15;;;23.98;;
21941;SDS011;11135;54.192;15.670;2023-09-12T14:54:39;31.80;;;23.05;;
21941;SDS011;11135;54.192;15.670;2023-09-12T14:58:09;31.25;;;23.55;;
21941;SDS011;11135;54.192;15.670;2023-09-12T15:01:36;33.90;;;24.27;;
21941;SDS011;11135;54.192;15.670;2023-09-12T15:05:04;27.38;;;23.50;;
21941;SDS011;11135;54.192;15.670;2023-09-12T15:08:33;37.58;;;23.45;;
21941;SDS011;11135;54.192;15.670;2023-09-12T15:12:03;32.88;;;24.90;;
21941;SDS011;11135;54.192;15.670;2023-09-12T15:15:33;29.33;;;24.30;;
21941;SDS011;11135;54.192;15.670;2023-09-12T15:18:59;31.20;;;25.10;;
21941;SDS011;11135;54.192;15.670;2023-09-12T15:22:26;32.20;;;26.65;;
21941;SDS011;11135;54.192;15.670;2023-09-12T15:25:56;35.95;;;26.65;;
21941;SDS011;11135;54.192;15.670;2023-09-12T15:29:24;34.80;;;25.33;;
21941;SDS011;11135;54.192;15.670;2023-09-12T15:32:50;33.30;;;26.02;;
21941;SDS011;11135;54.192;15.670;2023-09-12T15:36:16;29.48;;;24.60;;
21941;SDS011;11135;54.192;15.670;2023-09-12T15:39:42;38.30;;;25.60;;
21941;SDS011;11135;54.192;15.670;2023-09-12T15:43:10;34.85;;;27.27;;
21941;SDS011;11135;54.192;15.670;2023-09-12T15:46:46;35.20;;;29.27;;
21941;SDS011;11135;54.192;15.670;2023-09-12T15:50:12;37.45;;;27.80;;
21941;SDS011;11135;54.192;15.670;2023-09-12T15:53:41;32.65;;;27.15;;
21941;SDS011;11135;54.192;15.670;2023-09-12T15:57:07;32.58;;;26.10;;
21941;SDS011;11135;54.192;15.670;2023-09-12T16:00:38;41.67;;;31.02;;
21941;SDS011;11135;54.192;15.670;2023-09-12T16:04:09;34.38;;;27.80;;
21941;SDS011;11135;54.192;15.670;2023-09-12T16:07:38;53.60;;;32.90;;
21941;SDS011;11135;54.192;15.670;2023-09-12T16:11:04;39.70;;;29.10;;
21941;SDS011;11135;54.192;15.670;2023-09-12T16:14:35;40.25;;;30.48;;
21941;SDS011;11135;54.192;15.670;2023-09-12T16:18:07;33.42;;;26.60;;
21941;SDS011;11135;54.192;15.670;2023-09-12T16:21:33;41.08;;;30.95;;
21941;SDS011;11135;54.192;15.670;2023-09-12T16:24:59;37.65;;;27.67;;
21941;SDS011;11135;54.192;15.670;2023-09-12T16:28:26;37.25;;;28.88;;
21941;SDS011;11135;54.192;15.670;2023-09-12T16:31:54;35.97;;;28.27;;
21941;SDS011;11135;54.192;15.670;2023-09-12T16:35:23;36.72;;;27.13;;
21941;SDS011;11135;54.192;15.670;2023-09-12T16:38:51;40.75;;;28.33;;
21941;SDS011;11135;54.192;15.670;2023-09-12T16:42:17;39.10;;;29.77;;
21941;SDS011;11135;54.192;15.670;2023-09-12T16:45:47;37.92;;;27.40;;
21941;SDS011;11135;54.192;15.670;2023-09-12T16:49:14;41.55;;;28.85;;
21941;SDS011;11135;54.192;15.670;2023-09-12T16:52:42;41.90;;;27.77;;
21941;SDS011;11135;54.192;15.670;2023-09-12T16:56:11;36.15;;;25.98;;
21941;SDS011;11135;54.192;15.670;2023-09-12T16:59:37;40.47;;;28.85;;
21941;SDS011;11135;54.192;15.670;2023-09-12T17:03:05;42.78;;;28.45;;
21941;SDS011;11135;54.192;15.670;2023-09-12T17:06:30;37.38;;;28.80;;
21941;SDS011;11135;54.192;15.670;2023-09-12T17:10:02;41.28;;;27.88;;
21941;SDS011;11135;54.192;15.670;2023-09-12T17:13:31;37.23;;;28.07;;
21941;SDS011;11135;54.192;15.670;2023-09-12T17:16:57;39.25;;;28.30;;
21941;SDS011;11135;54.192;15.670;2023-09-12T17:20:24;39.00;;;27.85;;
21941;SDS011;11135;54.192;15.670;2023-09-12T17:23:50;43.88;;;29.40;;
21941;SDS011;11135;54.192;15.670;2023-09-12T17:27:24;38.70;;;28.92;;
21941;SDS011;11135;54.192;15.670;2023-09-12T17:30:52;38.80;;;29.42;;
21941;SDS011;11135;54.192;15.670;2023-09-12T17:34:37;34.03;;;25.30;;
21941;SDS011;11135;54.192;15.670;2023-09-12T17:38:04;39.50;;;26.48;;
21941;SDS011;11135;54.192;15.670;2023-09-12T17:41:30;39.10;;;28.25;;
21941;SDS011;11135;54.192;15.670;2023-09-12T17:45:00;37.50;;;28.45;;
21941;SDS011;11135;54.192;15.670;2023-09-12T17:48:25;38.88;;;28.33;;
21941;SDS011;11135;54.192;15.670;2023-09-12T17:51:52;36.15;;;26.73;;
21941;SDS011;11135;54.192;15.670;2023-09-12T17:55:20;40.85;;;27.52;;
21941;SDS011;11135;54.192;15.670;2023-09-12T17:58:46;39.33;;;27.48;;
21941;SDS011;11135;54.192;15.670;2023-09-12T18:02:15;39.28;;;28.30;;
21941;SDS011;11135;54.192;15.670;2023-09-12T18:05:45;39.03;;;27.13;;
21941;SDS011;11135;54.192;15.670;2023-09-12T18:09:11;38.65;;;27.73;;
21941;SDS011;11135;54.192;15.670;2023-09-12T18:12:38;41.42;;;29.17;;
21941;SDS011;11135;54.192;15.670;2023-09-12T18:16:04;44.40;;;28.38;;
21941;SDS011;11135;54.192;15.670;2023-09-12T18:19:35;40.78;;;28.63;;
21941;SDS011;11135;54.192;15.670;2023-09-12T18:23:16;43.33;;;30.10;;
21941;SDS011;11135;54.192;15.670;2023-09-12T18:26:44;40.08;;;28.77;;
21941;SDS011;11135;54.192;15.670;2023-09-12T18:30:10;45.75;;;30.35;;
21941;SDS011;11135;54.192;15.670;2023-09-12T18:33:41;47.80;;;31.80;;
21941;SDS011;11135;54.192;15.670;2023-09-12T18:37:11;43.25;;;27.33;;
21941;SDS011;11135;54.192;15.670;2023-09-12T18:40:38;35.10;;;26.17;;
21941;SDS011;11135;54.192;15.670;2023-09-12T18:44:04;33.80;;;23.95;;
21941;SDS011;11135;54.192;15.670;2023-09-12T18:47:30;32.22;;;24.80;;
21941;SDS011;11135;54.192;15.670;2023-09-12T18:50:56;31.65;;;23.20;;
21941;SDS011;11135;54.192;15.670;2023-09-12T18:54:26;28.73;;;23.02;;
21941;SDS011;11135;54.192;15.670;2023-09-12T18:57:53;34.58;;;24.48;;
21941;SDS011;11135;54.192;15.670;2023-09-12T19:01:21;28.75;;;21.67;;
21941;SDS011;11135;54.192;15.670;2023-09-12T19:04:47;33.88;;;24.67;;
21941;SDS011;11135;54.192;15.670;2023-09-12T19:08:15;29.90;;;23.83;;
21941;SDS011;11135;54.192;15.670;2023-09-12T19:11:46;30.55;;;22.95;;
21941;SDS011;11135;54.192;15.670;2023-09-12T19:15:15;29.33;;;21.88;;
21941;SDS011;11135;54.192;15.670;2023-09-12T19:18:44;28.52;;;22.05;;
21941;SDS011;11135;54.192;15.670;2023-09-12T19:22:11;31.85;;;21.98;;
21941;SDS011;11135;54.192;15.670;2023-09-12T19:25:40;30.67;;;23.90;;
21941;SDS011;11135;54.192;15.670;2023-09-12T19:29:14;28.35;;;21.45;;
21941;SDS011;11135;54.192;15.670;2023-09-12T19:32:41;26.70;;;22.05;;
21941;SDS011;11135;54.192;15.670;2023-09-12T19:36:14;30.70;;;21.98;;
21941;SDS011;11135;54.192;15.670;2023-09-12T19:39:49;28.37;;;21.87;;
21941;SDS011;11135;54.192;15.670;2023-09-12T19:43:23;29.00;;;22.45;;
21941;SDS011;11135;54.192;15.670;2023-09-12T19:46:53;32.08;;;23.15;;
21941;SDS011;11135;54.192;15.670;2023-09-12T19:50:24;29.08;;;21.08;;
21941;SDS011;11135;54.192;15.670;2023-09-12T19:53:49;32.15;;;23.08;;
21941;SDS011;11135;54.192;15.670;2023-09-12T19:57:15;32.80;;;24.27;;
21941;SDS011;11135;54.192;15.670;2023-09-12T20:00:43;32.03;;;22.95;;
21941;SDS011;11135;54.192;15.670;2023-09-12T20:04:20;28.75;;;21.83;;
21941;SDS011;11135;54.192;15.670;2023-09-12T20:07:48;30.02;;;21.70;;
21941;SDS011;11135;54.192;15.670;2023-09-12T20:11:15;27.70;;;22.38;;
21941;SDS011;11135;54.192;15.670;2023-09-12T20:14:45;30.00;;;22.42;;
21941;SDS011;11135;54.192;15.670;2023-09-12T20:18:14;28.65;;;22.27;;